Brookville, Pennsylvania
Current Conditions -  °F | °C
As of 1:53 PM on Saturday 25 Oct 2014 (Local Time) from KDUJ Reporting Station
Overcast Overcast  
Wind Chill: 60°   Ceiling: 4900
Heat Index: 60°   Visibility: 10mi
Dew Point: 48°   Wind: 18mph
Humidity: 64%   Direction: 240°WSW
Pressure: 29.78"   Gusts: 29mph
Location:  41.16°N, 79.08°W
Report Text: KDUJ 251753Z AUTO 24016G25KT 10SM FEW028 OVC049 16/09 A2978 RMK AO2 SLP082 T01560089 10161 20061 58029 $
Loading
Personal Weather Stations






























Interactive Weather Map
Tropical Storm Tracking
New forecast layout! Learn more

10-Day Weather Forecast

Advertisements
Track Severe Weather on mobile